Airfield :
LOGIN :

Register | Disclaimer

   EN    FR    IT 

 










Legend :    VFR   Marginal VFR   IFR   Intensive IFR   Very Intensive IFR
Visi :
Ceiling :
>= 8 km
>= 3000ft
5 to 8 km
1000 to 3000 ft
1500m to 5 km
500 to 1000 ft
800 to 1500m
200 to 500 ft
< 800m
< 200 ft
Symbols :   Thunderstorms  Fog  Heavy snow  Heavy precipitations  Wind > 20 kt
SIGMETs :     Misc.  Thunderstorms  Icing  Turbulence  Mountain Waves  Volcanic Ashes






- Airport Elevation : -11 ft
- IATA code : AMS


EHAM - Amsterdam Schiphol

CURRENT METAR :
  • 180755Z 23006KT 9999 FEW017 05/03 Q1021 NOSIG

EXPIRED METARs :
  • 180725Z 25009KT 220V280 9999 -SHRA FEW014 SCT018CB 06/03 Q1020 NOSIG
  • 180655Z 24009KT 9999 FEW020TCU FEW040 05/02 Q1020 TEMPO 7000 SHRA SCT020CB
  • 180625Z 23008KT 210V270 9999 FEW018 SCT040 05/03 Q1020 TEMPO FM0700 7000 SHRA SCT020CB
  • 180555Z 22009KT 9999 FEW018 04/03 Q1020 NOSIG
  • 180525Z 22011KT 9999 FEW018 04/03 Q1019 NOSIG

TAF TAF EHAM
Valid from the 18 at 06:00 until the 19 at 12:00 UTC


180505Z 1806/1912 24012KT 9999 SCT025
PROB30
TEMPO 1806/1906 29015G25KT 6000 SHRA SCT018CB BKN020
BECMG 1807/1810 29013KT
BECMG 1900/1903 33012KT
BECMG 1906/1909 36012KT



MET'MAP, your aeronautical weather chart ! - Copyright ORBIFLY December 2007 - Disclaimer

ORBIFLY MET'MAP TEAM :

Programming & Development : Alexandra Zaïnal
Concept & original design : Baudouin d'Aumeries
Assistance for programming : Marc-Olivier Méhu
Technical & hardware support : Manuel Goepfert

Contact : metmap@orbifly.com




SOURCES & CREDITS :

   NOAA